Monk Fryston, United Kingdom
Current Conditions -  °F | °C
As of 3:50 AM on Wednesday 28 Jan 2015 (Local Time) from EGNM Reporting Station
Drizzle Drizzle  
Wind Chill: 33°   Ceiling: 600
Heat Index: 43°   Visibility: 6mi
Dew Point: 41°   Wind: 24mph
Humidity: 93%   Direction: 230°SW
Pressure: 29.59"   Gusts: NA
Location:  53.76°N, 1.24°W
Report Text: EGNM 280350Z 23021KT 9999 -DZ BKN006 06/05 Q1002
Loading
Personal Weather Stations






























Interactive Weather Map New forecast layout! Learn more

10-Day Weather Forecast

Advertisements
Track Severe Weather on mobile